首页
METAR-TAF:

METAR-TAF

机场 :

Naval Air Station Whiting Field North

米尔顿, 佛罗里达州, 美国

纬度: 30-44-00N, 经度: 087-01-00W, 海拔: 60米

当前天气观测

该预报发布于42分钟前的18:56 UTC
风速6节,风向西
温度 19°C
湿度 52%
气压 1015 hPa
能見度: 16.1公里
天空无云

METAR: KNSE 171856Z AUTO 28006KT 10SM CLR 19/09 A2996 RMK AO2 SLP134 T01940094 $

时间: 13:38 (19:38 UTC)

预报

预报有效从17日的 15点(UTC)到 18日的 15点(UTC)
风速6节,风向多变
能见度10公里或以上
天空无云
从 17日的 2000点(UTC)
风速10节,风向北转西北
能见度10公里或以上
散云层高于25000英尺
从 18日的 0700点(UTC)
风速6节,风向多变
能見度: 1718
多云层高于25000英尺

TAF: KNSE 1715/1815 VRB06KT 9999 SKC QNH3007INS FM172000 34010KT 9999 SCT250 QNH2999INS FM180700 VRB06KT 9999 BKN250 QNH2995INS AUTOMATED SENSOR METWATCH 1715 TIL 1718 T17/1720Z T07/1811Z FN00189

超过4000个机场的气象观测和天气预报(METAR&TAF报告)。

可查询的气象台以黄色和红色小点在地图上表示。

将鼠标移到小点上方,可查看气象台名称。

然后点击查看天气观测和预报。

如需切换地图:点击带黑十字的绿色按钮放大地图;点击带横线的绿色按钮缩小地图;或者点击绿色箭头查看邻近地区的地图。


METAR-TAF: